createdAt,value
2023-03-13T00:00:18.408Z,19.3
2023-03-13T00:01:34.700Z,18.4
2023-03-13T00:02:50.990Z,15.4
2023-03-13T00:04:07.302Z,20
2023-03-13T00:05:23.595Z,15.7
2023-03-13T00:06:39.883Z,20.7
2023-03-13T00:07:55.179Z,16.2
2023-03-13T00:09:11.471Z,16.9
2023-03-13T00:10:27.773Z,19
2023-03-13T00:11:44.084Z,20.3
2023-03-13T00:13:00.361Z,18.9
2023-03-13T00:14:16.663Z,18.5
2023-03-13T00:15:32.944Z,16.5
2023-03-13T00:16:49.238Z,18
2023-03-13T00:18:05.539Z,19.3
2023-03-13T00:19:21.835Z,16.6
2023-03-13T00:20:38.126Z,20.7
2023-03-13T00:21:54.420Z,16.5
2023-03-13T00:23:10.709Z,15
2023-03-13T00:24:26.018Z,18.3
2023-03-13T00:25:42.312Z,19.3
2023-03-13T00:26:58.614Z,18.5
2023-03-13T00:28:14.906Z,14.8
2023-03-13T00:29:31.196Z,19.9
2023-03-13T00:30:47.497Z,19.3
2023-03-13T00:32:03.783Z,17.6
2023-03-13T00:33:20.077Z,14.6
2023-03-13T00:34:36.375Z,15.7
2023-03-13T00:35:52.668Z,19.4
2023-03-13T00:37:08.948Z,19.5
2023-03-13T00:38:25.260Z,16.4
2023-03-13T00:39:41.538Z,12.6
2023-03-13T00:40:57.962Z,18.1
2023-03-13T00:42:14.252Z,17.6
2023-03-13T00:43:30.553Z,16.6
2023-03-13T00:44:46.838Z,21.5
2023-03-13T00:46:03.121Z,17.3
2023-03-13T00:47:19.439Z,17.2
2023-03-13T00:48:35.000Z,20.9
2023-03-13T00:49:52.018Z,16.6
2023-03-13T00:51:08.306Z,16.1
2023-03-13T00:52:24.610Z,14
2023-03-13T00:53:40.896Z,14.7
2023-03-13T00:54:57.185Z,19.6
2023-03-13T00:56:13.473Z,14.4
2023-03-13T00:57:28.792Z,15.3
2023-03-13T00:58:45.075Z,17
2023-03-13T01:00:01.372Z,15
2023-03-13T01:01:17.675Z,16.4
2023-03-13T01:02:33.958Z,16.2
2023-03-13T01:03:50.263Z,15.7
2023-03-13T01:05:06.561Z,19.1
2023-03-13T01:06:22.850Z,21.1
2023-03-13T01:07:39.139Z,13.7
2023-03-13T01:08:55.424Z,16.2
2023-03-13T01:10:11.727Z,15.9
2023-03-13T01:11:28.021Z,18.8
2023-03-13T01:12:44.312Z,18
2023-03-13T01:13:59.620Z,17.6
2023-03-13T01:15:15.918Z,14.6
2023-03-13T01:16:32.206Z,13.7
2023-03-13T01:17:48.505Z,13.7
2023-03-13T01:19:04.787Z,16.2
2023-03-13T01:20:21.091Z,16.2
2023-03-13T01:21:37.374Z,11.9
2023-03-13T01:22:53.667Z,17.6
2023-03-13T01:24:09.960Z,14.5
2023-03-13T01:25:26.267Z,14.3
2023-03-13T01:26:42.549Z,17.7
2023-03-13T01:27:58.847Z,16
2023-03-13T01:29:15.137Z,17.3
2023-03-13T01:30:30.457Z,12.7
2023-03-13T01:31:46.737Z,15.8
2023-03-13T01:33:03.035Z,15.8
2023-03-13T01:34:19.329Z,12.7
2023-03-13T01:35:35.632Z,15.7
2023-03-13T01:36:51.926Z,13.3
2023-03-13T01:38:08.209Z,14
2023-03-13T01:39:24.509Z,14
2023-03-13T01:40:40.810Z,13.9
2023-03-13T01:41:57.085Z,16.7
2023-03-13T01:43:13.401Z,12.5
2023-03-13T01:44:29.679Z,14
2023-03-13T01:45:45.970Z,17.8
2023-03-13T01:47:01.273Z,15.3
2023-03-13T01:48:17.583Z,15.3
2023-03-13T01:49:33.869Z,18.7
2023-03-13T01:50:50.167Z,17.8
2023-03-13T01:52:06.466Z,17.5
2023-03-13T01:53:22.752Z,14.2
2023-03-13T01:54:39.034Z,12.4
2023-03-13T01:55:55.333Z,15.8
2023-03-13T01:57:11.632Z,19
2023-03-13T01:58:27.935Z,15.1
2023-03-13T01:59:44.233Z,12.6
2023-03-13T02:01:00.505Z,12.9
2023-03-13T02:02:16.799Z,13.3
2023-03-13T02:03:32.116Z,16.8
2023-03-13T02:04:48.400Z,18.2
2023-03-13T02:06:04.695Z,16
2023-03-13T02:07:20.999Z,13.8
2023-03-13T02:08:37.300Z,19.1
2023-03-13T02:09:53.591Z,17.3
2023-03-13T02:11:09.869Z,15.1
2023-03-13T02:12:26.179Z,18
2023-03-13T02:13:42.474Z,15.3
2023-03-13T02:14:58.753Z,12.6
2023-03-13T02:16:15.053Z,19.1
2023-03-13T02:17:31.346Z,20.1
2023-03-13T02:18:47.636Z,15.7
2023-03-13T02:20:02.952Z,15.2
2023-03-13T02:21:19.253Z,13.3
2023-03-13T02:22:35.000Z,14.2
2023-03-13T02:23:51.829Z,13.5
2023-03-13T02:25:08.122Z,16.1
2023-03-13T02:26:24.425Z,16.1
2023-03-13T02:27:40.699Z,18.7
2023-03-13T02:28:57.005Z,18.2
2023-03-13T02:30:13.289Z,11.4
2023-03-13T02:31:29.585Z,17
2023-03-13T02:32:45.878Z,14.6
2023-03-13T02:34:02.172Z,17.9
2023-03-13T02:35:18.467Z,17.7
2023-03-13T02:36:33.790Z,17.9
2023-03-13T02:37:50.079Z,16.6
2023-03-13T02:39:06.367Z,18.2
2023-03-13T02:40:22.668Z,14.4
2023-03-13T02:41:38.959Z,15.1
2023-03-13T02:42:55.252Z,14.4
2023-03-13T02:44:11.531Z,16.7
2023-03-13T02:45:27.853Z,17.8
2023-03-13T02:46:44.130Z,15.7
2023-03-13T02:48:00.438Z,17.6
2023-03-13T02:49:16.713Z,14.1
2023-03-13T02:50:33.000Z,22
2023-03-13T02:51:49.302Z,19.9
2023-03-13T02:53:04.607Z,15
2023-03-13T02:54:20.908Z,18.7
2023-03-13T02:55:37.190Z,19.5
2023-03-13T02:56:53.483Z,16.5
2023-03-13T02:58:09.788Z,20.3
2023-03-13T02:59:26.084Z,17
2023-03-13T03:00:42.366Z,13
2023-03-13T03:01:58.661Z,15.2
2023-03-13T03:03:14.951Z,17.8
2023-03-13T03:04:31.252Z,16.9
2023-03-13T03:05:47.541Z,14.4
2023-03-13T03:07:03.843Z,18.8
2023-03-13T03:08:20.150Z,17.7
2023-03-13T03:09:35.441Z,17.6
2023-03-13T03:10:51.739Z,15.1
2023-03-13T03:12:08.028Z,20
2023-03-13T03:13:24.324Z,12.6
2023-03-13T03:14:40.609Z,12.7
2023-03-13T03:15:56.902Z,15.1
2023-03-13T03:17:13.209Z,20.6
2023-03-13T03:18:29.491Z,15.6
2023-03-13T03:19:45.797Z,13.7
2023-03-13T03:21:02.088Z,15.6
2023-03-13T03:22:18.379Z,18.1
2023-03-13T03:23:34.662Z,14.7
2023-03-13T03:24:50.971Z,18.9
2023-03-13T03:26:06.277Z,16.2
2023-03-13T03:27:22.569Z,15.9
2023-03-13T03:28:38.877Z,20.6
2023-03-13T03:29:55.162Z,15.5
2023-03-13T03:31:11.441Z,17.4
2023-03-13T03:32:27.751Z,12.5
2023-03-13T03:33:43.075Z,15.7
2023-03-13T03:34:59.354Z,14.3
2023-03-13T03:36:15.671Z,14.7
2023-03-13T03:37:31.942Z,18.1
2023-03-13T03:38:48.223Z,19.9
2023-03-13T03:40:04.518Z,19.3
2023-03-13T03:41:20.828Z,15.9
2023-03-13T03:42:37.107Z,11.9
2023-03-13T03:43:53.402Z,17.8
2023-03-13T03:45:09.697Z,18.1
2023-03-13T03:46:26.000Z,16.5
2023-03-13T03:47:42.296Z,16.9
2023-03-13T03:48:58.585Z,16.7
2023-03-13T03:50:13.893Z,14.1
2023-03-13T03:51:30.181Z,13.9
2023-03-13T03:52:46.487Z,16.3
2023-03-13T03:54:02.776Z,13.9
2023-03-13T03:55:19.064Z,16.6
2023-03-13T03:56:35.366Z,18.2
2023-03-13T03:57:51.669Z,17.7
2023-03-13T03:59:07.937Z,18.2
2023-03-13T04:00:24.246Z,12.7
2023-03-13T04:01:40.542Z,14.3
2023-03-13T04:02:56.827Z,16
2023-03-13T04:04:13.118Z,14.8
2023-03-13T04:05:29.419Z,15.7
2023-03-13T04:06:44.725Z,16.5
2023-03-13T04:08:01.017Z,21.7
2023-03-13T04:09:17.325Z,17.3
2023-03-13T04:10:33.602Z,17.2
2023-03-13T04:11:49.915Z,21.6
2023-03-13T04:13:06.189Z,11.6
2023-03-13T04:14:22.476Z,17.1
2023-03-13T04:15:38.771Z,14.9
2023-03-13T04:16:55.064Z,15.2
2023-03-13T04:18:11.000Z,20.2
2023-03-13T04:19:27.656Z,21.2
2023-03-13T04:20:43.958Z,12.1
2023-03-13T04:22:00.252Z,12.2
2023-03-13T04:23:15.559Z,19
2023-03-13T04:24:31.849Z,14.4
2023-03-13T04:25:48.146Z,11.4
2023-03-13T04:27:04.449Z,14.5
2023-03-13T04:28:20.740Z,16
2023-03-13T04:29:37.025Z,15.4
2023-03-13T04:30:53.305Z,15.3
2023-03-13T04:32:09.601Z,17.5
2023-03-13T04:33:25.906Z,15.5
2023-03-13T04:34:42.194Z,14.6
2023-03-13T04:35:58.490Z,14.6
2023-03-13T04:37:14.775Z,19.3
2023-03-13T04:38:31.082Z,10.8
2023-03-13T04:39:46.392Z,15.2
2023-03-13T04:41:02.689Z,14.7
2023-03-13T04:42:18.975Z,12.9
2023-03-13T04:43:35.256Z,13.9
2023-03-13T04:44:51.567Z,13.7
2023-03-13T04:46:07.856Z,18.5
2023-03-13T04:47:24.135Z,13.6
2023-03-13T04:48:40.442Z,17.1
2023-03-13T04:49:56.737Z,15.4
2023-03-13T04:51:13.022Z,13.1
2023-03-13T04:52:29.337Z,14.6
2023-03-13T04:53:45.618Z,16.7
2023-03-13T04:55:01.925Z,15.3
2023-03-13T04:56:17.239Z,12.5
2023-03-13T04:57:33.512Z,15.8
2023-03-13T04:58:49.799Z,19.2
2023-03-13T05:00:06.111Z,14.1
2023-03-13T05:01:22.381Z,14.4
2023-03-13T05:02:38.692Z,12.6
2023-03-13T05:03:54.992Z,13.3
2023-03-13T05:05:11.274Z,18.7
2023-03-13T05:06:27.573Z,13.9
2023-03-13T05:07:43.863Z,19.9
2023-03-13T05:09:00.157Z,13.9
2023-03-13T05:10:16.413Z,19.7
2023-03-13T05:11:32.694Z,15.5
2023-03-13T05:12:47.964Z,17.9
2023-03-13T05:14:04.185Z,15
2023-03-13T05:15:20.491Z,14.3
2023-03-13T05:16:36.780Z,18.7
2023-03-13T05:17:53.040Z,14.8
2023-03-13T05:19:09.279Z,10.8
2023-03-13T05:20:25.527Z,15.5
2023-03-13T05:21:41.758Z,13
2023-03-13T05:22:57.997Z,17.9
2023-03-13T05:24:14.238Z,13.7
2023-03-13T05:25:30.486Z,14.8
2023-03-13T05:26:46.717Z,11.3
2023-03-13T05:28:02.952Z,13.3
2023-03-13T05:29:18.221Z,14.4
2023-03-13T05:30:34.459Z,11.7
2023-03-13T05:31:50.000Z,17.6
2023-03-13T05:33:06.932Z,14.4
2023-03-13T05:34:23.187Z,19.9
2023-03-13T05:35:39.421Z,13.8
2023-03-13T05:36:55.666Z,15.8
2023-03-13T05:38:11.904Z,15.8
2023-03-13T05:39:28.138Z,13.2
2023-03-13T05:40:44.366Z,14.3
2023-03-13T05:42:00.625Z,15.6
2023-03-13T05:43:16.859Z,11
2023-03-13T05:44:33.111Z,19
2023-03-13T05:45:48.362Z,13.8
2023-03-13T05:47:04.593Z,14.2
2023-03-13T05:48:20.822Z,13.8
2023-03-13T05:49:37.074Z,10.5
2023-03-13T05:50:53.300Z,14.4
2023-03-13T05:52:09.544Z,14.6
2023-03-13T05:53:25.780Z,13.6
2023-03-13T05:54:42.034Z,16.7
2023-03-13T05:55:58.280Z,14.9
2023-03-13T05:58:30.736Z,13.4
2023-03-13T05:59:46.987Z,11
2023-03-13T06:01:03.217Z,14.9
2023-03-13T06:02:18.482Z,15.9
2023-03-13T06:03:34.720Z,17.6
2023-03-13T06:04:50.949Z,14.7
2023-03-13T06:06:07.191Z,15.9
2023-03-13T06:07:23.439Z,14.9
2023-03-13T06:08:39.673Z,13
2023-03-13T06:09:55.924Z,12.5
2023-03-13T06:11:12.170Z,10.6
2023-03-13T06:12:28.403Z,11.6
2023-03-13T06:13:44.635Z,15.8
2023-03-13T06:15:00.886Z,15.5
2023-03-13T06:16:17.117Z,16.7
2023-03-13T06:17:33.369Z,16.4
2023-03-13T06:18:48.603Z,15.4
2023-03-13T06:20:04.854Z,19.3
2023-03-13T06:21:21.084Z,19.1
2023-03-13T06:22:37.327Z,15.5
2023-03-13T06:23:53.572Z,20.5
2023-03-13T06:25:09.816Z,14.6
2023-03-13T06:26:26.050Z,16.1
2023-03-13T06:27:42.281Z,14.1
2023-03-13T06:28:58.531Z,20.3
2023-03-13T06:30:14.774Z,16.2
2023-03-13T06:31:31.015Z,16.2
2023-03-13T06:32:47.247Z,18
2023-03-13T06:34:03.492Z,13.8
2023-03-13T06:35:18.743Z,20.5
2023-03-13T06:36:34.973Z,15.7
2023-03-13T06:37:51.230Z,22.1
2023-03-13T06:39:07.470Z,14.1
2023-03-13T06:40:23.722Z,20.7
2023-03-13T06:41:39.952Z,21.5
2023-03-13T06:42:56.181Z,24.8
2023-03-13T06:44:12.433Z,27.2
2023-03-13T06:45:28.649Z,23.5
2023-03-13T06:46:44.901Z,18.8
2023-03-13T06:48:01.131Z,16.9
2023-03-13T06:49:17.393Z,23.1
2023-03-13T06:50:33.616Z,16.8
2023-03-13T06:51:48.865Z,23.4
2023-03-13T06:53:05.122Z,16.2
2023-03-13T06:54:21.344Z,20.1
2023-03-13T06:55:37.583Z,18.5
2023-03-13T06:56:53.831Z,17
2023-03-13T06:58:10.068Z,20.3
2023-03-13T06:59:26.303Z,20.8
2023-03-13T07:00:42.547Z,20
2023-03-13T07:01:58.799Z,18.9
2023-03-13T07:03:15.033Z,21.5
2023-03-13T07:04:31.261Z,20.9
2023-03-13T07:05:47.514Z,18.5
2023-03-13T07:07:03.739Z,22.7
2023-03-13T07:08:19.013Z,29.2
2023-03-13T07:09:35.254Z,21.1
2023-03-13T07:10:51.485Z,24.7
2023-03-13T07:12:07.724Z,18.9
2023-03-13T07:13:23.972Z,18.8
2023-03-13T07:14:40.204Z,15.3
2023-03-13T07:15:56.445Z,15.3
2023-03-13T07:17:12.693Z,18.9
2023-03-13T07:18:28.917Z,17
2023-03-13T07:19:45.169Z,16.7
2023-03-13T07:21:01.404Z,13.9
2023-03-13T07:22:17.646Z,13.3
2023-03-13T07:23:33.905Z,9.6
2023-03-13T07:24:49.134Z,11.4
2023-03-13T07:26:05.381Z,13.7
2023-03-13T07:27:21.626Z,10.3
2023-03-13T07:28:37.858Z,12.7
2023-03-13T07:29:54.090Z,16.7
2023-03-13T07:31:10.335Z,10.1
2023-03-13T07:32:26.576Z,11.9
2023-03-13T07:33:42.801Z,12.5
2023-03-13T07:34:59.050Z,14.3
2023-03-13T07:36:15.300Z,10.3
2023-03-13T07:37:31.542Z,8.3
2023-03-13T07:38:47.781Z,11.3
2023-03-13T07:40:04.014Z,13.3
2023-03-13T07:41:19.269Z,9.2
2023-03-13T07:42:35.512Z,7.5
2023-03-13T07:43:51.741Z,12.7
2023-03-13T07:45:07.979Z,9.4
2023-03-13T07:46:24.236Z,10.2
2023-03-13T07:47:40.466Z,9.5
2023-03-13T07:48:55.726Z,8
2023-03-13T07:50:11.973Z,7.8
2023-03-13T07:51:28.218Z,7.8
2023-03-13T07:52:44.459Z,7.4
2023-03-13T07:54:00.675Z,6.7
2023-03-13T07:55:16.913Z,10.3
2023-03-13T07:56:33.169Z,8.3
2023-03-13T07:57:49.410Z,8.8
2023-03-13T07:59:05.635Z,8.7
2023-03-13T08:00:21.874Z,5.9
2023-03-13T08:01:38.112Z,8.1
2023-03-13T08:02:54.366Z,4.2
2023-03-13T08:04:10.615Z,6.4
2023-03-13T08:05:25.860Z,9.3
2023-03-13T08:06:42.091Z,6.9
2023-03-13T08:07:58.324Z,6
2023-03-13T08:09:14.582Z,6.2
2023-03-13T08:10:30.811Z,6.7
2023-03-13T08:11:47.046Z,4.3
2023-03-13T08:13:03.297Z,6.7
2023-03-13T08:14:19.531Z,7.1
2023-03-13T08:15:35.778Z,6.4
2023-03-13T08:16:52.012Z,3.9
2023-03-13T08:18:08.263Z,7.1
2023-03-13T08:19:24.482Z,8.2
2023-03-13T08:20:40.722Z,5.1
2023-03-13T08:21:55.984Z,5.4
2023-03-13T08:23:12.218Z,5.9
2023-03-13T08:24:28.460Z,3.6
2023-03-13T08:25:44.709Z,7.6
2023-03-13T08:27:00.943Z,4.5
2023-03-13T08:28:17.197Z,6.5
2023-03-13T08:29:33.425Z,7.1
2023-03-13T08:30:49.671Z,6.2
2023-03-13T08:32:05.908Z,4.8
2023-03-13T08:33:22.148Z,4.7
2023-03-13T08:34:38.384Z,5.5
2023-03-13T08:35:54.620Z,5.6
2023-03-13T08:37:10.875Z,4
2023-03-13T08:38:26.113Z,4.6
2023-03-13T08:39:42.354Z,4.5
2023-03-13T08:40:58.592Z,6.9
2023-03-13T08:42:14.838Z,5.5
2023-03-13T08:43:31.080Z,5
2023-03-13T08:44:47.314Z,3.4
2023-03-13T08:46:03.554Z,5.3
2023-03-13T08:47:19.802Z,3.5
2023-03-13T08:48:36.044Z,5.1
2023-03-13T08:49:52.278Z,5.1
2023-03-13T08:51:08.518Z,6.1
2023-03-13T08:52:24.764Z,6.7
2023-03-13T08:53:40.989Z,4.3
2023-03-13T08:54:56.266Z,5.8
2023-03-13T08:56:12.487Z,6.5
2023-03-13T08:57:28.729Z,6.5
2023-03-13T08:58:44.969Z,7.4
2023-03-13T09:00:01.211Z,5.7
2023-03-13T09:01:17.445Z,8.6
2023-03-13T09:02:33.698Z,13.1
2023-03-13T09:03:49.931Z,8.4
2023-03-13T09:05:06.174Z,9
2023-03-13T09:06:22.413Z,12.6
2023-03-13T09:07:38.655Z,9
2023-03-13T09:08:54.888Z,10.7
2023-03-13T09:10:11.124Z,8.2
2023-03-13T09:11:26.391Z,10
2023-03-13T09:12:42.624Z,11.3
2023-03-13T09:13:58.875Z,11.6
2023-03-13T09:15:15.107Z,13.5
2023-03-13T09:16:31.342Z,10.1
2023-03-13T09:17:47.584Z,13.1
2023-03-13T09:19:03.831Z,10.4
2023-03-13T09:20:20.068Z,9.6
2023-03-13T09:21:36.000Z,12.1
2023-03-13T09:22:52.546Z,12
2023-03-13T09:24:08.779Z,9.2
2023-03-13T09:25:25.018Z,11.4
2023-03-13T09:26:41.271Z,13.1
2023-03-13T09:27:56.521Z,10.4
2023-03-13T09:29:12.752Z,15.4
2023-03-13T09:30:29.003Z,16.2
2023-03-13T09:31:45.237Z,16.3
2023-03-13T09:33:01.480Z,13.7
2023-03-13T09:34:17.710Z,12.6
2023-03-13T09:35:33.952Z,9.3
2023-03-13T09:36:50.188Z,10.3
2023-03-13T09:38:06.443Z,16
2023-03-13T09:39:22.668Z,11.2
2023-03-13T09:40:38.911Z,11.5
2023-03-13T09:41:55.146Z,11.8
2023-03-13T09:43:11.399Z,13.2
2023-03-13T09:44:26.653Z,11.6
2023-03-13T09:45:42.884Z,18.1
2023-03-13T09:46:59.123Z,21.5
2023-03-13T09:48:15.364Z,15.5
2023-03-13T09:49:31.613Z,13.5
2023-03-13T09:50:47.859Z,12.4
2023-03-13T09:52:04.088Z,11.2
2023-03-13T09:53:20.328Z,6.4
2023-03-13T09:54:36.565Z,6.6
2023-03-13T09:55:52.812Z,7.1
2023-03-13T09:57:09.048Z,3.1
2023-03-13T09:58:25.301Z,4.4
2023-03-13T09:59:41.540Z,4.3
2023-03-13T10:00:56.797Z,2
2023-03-13T10:02:13.022Z,4
2023-03-13T10:03:29.268Z,4.3
2023-03-13T10:04:45.500Z,2.3
2023-03-13T10:06:01.748Z,4
2023-03-13T10:07:17.991Z,2.3
2023-03-13T10:08:34.226Z,3.2
2023-03-13T10:09:50.465Z,2.1
2023-03-13T10:11:06.712Z,3.6
2023-03-13T10:12:22.943Z,3.9
2023-03-13T10:13:39.187Z,4
2023-03-13T10:14:55.427Z,5.9
2023-03-13T10:16:11.674Z,4.7
2023-03-13T10:17:26.918Z,3.7
2023-03-13T10:18:43.157Z,4.7
2023-03-13T10:19:59.402Z,4.9
2023-03-13T10:21:15.646Z,2.4
2023-03-13T10:22:31.882Z,3.5
2023-03-13T10:23:48.128Z,1.7
2023-03-13T10:25:04.359Z,2.5
2023-03-13T10:26:20.613Z,1.8
2023-03-13T10:27:36.844Z,2.4
2023-03-13T10:28:53.090Z,5.7
2023-03-13T10:30:09.332Z,3.3
2023-03-13T10:31:25.578Z,4.2
2023-03-13T10:32:41.814Z,3.7
2023-03-13T10:33:57.059Z,4.1
2023-03-13T10:35:13.303Z,2.4
2023-03-13T10:36:29.534Z,3.8
2023-03-13T10:37:45.781Z,4.8
2023-03-13T10:39:02.032Z,2.9
2023-03-13T10:40:18.255Z,3.6
2023-03-13T10:41:34.496Z,3.3
2023-03-13T10:42:50.735Z,4.8
2023-03-13T10:44:06.977Z,3.4
2023-03-13T10:45:23.226Z,3.3
2023-03-13T10:46:39.455Z,2.8
2023-03-13T10:47:55.696Z,4
2023-03-13T10:49:11.939Z,3
2023-03-13T10:50:27.204Z,3.3
2023-03-13T10:51:43.435Z,2.8
2023-03-13T10:52:59.673Z,3.6
2023-03-13T10:54:15.917Z,2.5
2023-03-13T10:55:32.163Z,4.1
2023-03-13T10:56:48.401Z,2.9
2023-03-13T10:58:04.637Z,2
2023-03-13T10:59:20.881Z,2.1
2023-03-13T11:00:37.116Z,2.8
2023-03-13T11:01:53.362Z,3.9
2023-03-13T11:03:09.603Z,2.7
2023-03-13T11:04:25.839Z,3.1
2023-03-13T11:05:42.076Z,1.5
2023-03-13T11:06:57.342Z,3.2
2023-03-13T11:08:13.573Z,2.4
2023-03-13T11:09:29.822Z,1.4
2023-03-13T11:10:46.055Z,1.7
2023-03-13T11:12:02.297Z,2.2
2023-03-13T11:13:18.531Z,1.2
2023-03-13T11:14:34.779Z,2.1
2023-03-13T11:15:51.011Z,1.9
2023-03-13T11:17:07.257Z,2.9
2023-03-13T11:18:23.493Z,1.8
2023-03-13T11:19:39.742Z,3.2
2023-03-13T11:20:55.972Z,2.2
2023-03-13T11:22:12.212Z,2
2023-03-13T11:23:27.469Z,2
2023-03-13T11:24:43.710Z,3.1
2023-03-13T11:25:59.960Z,2.4
2023-03-13T11:27:16.186Z,3.3
2023-03-13T11:28:32.439Z,2.2
2023-03-13T11:29:48.662Z,2.1
2023-03-13T11:31:04.914Z,2.2
2023-03-13T11:32:21.140Z,3.3
2023-03-13T11:33:37.383Z,2.3
2023-03-13T11:34:53.622Z,2.8
2023-03-13T11:36:09.869Z,2.7
2023-03-13T11:37:26.104Z,1.9
2023-03-13T11:38:42.337Z,3
2023-03-13T11:39:57.594Z,2.8
2023-03-13T11:41:13.838Z,2
2023-03-13T11:42:30.076Z,1.2
2023-03-13T11:43:46.316Z,1.7
2023-03-13T11:45:02.546Z,1.8
2023-03-13T11:46:18.785Z,2.8
2023-03-13T11:47:35.022Z,1.2
2023-03-13T11:48:51.269Z,1.5
2023-03-13T11:50:07.500Z,3.5
2023-03-13T11:51:23.745Z,2
2023-03-13T11:52:39.981Z,4.6
2023-03-13T11:53:56.234Z,2.6
2023-03-13T11:55:12.471Z,1.6
2023-03-13T11:56:27.721Z,2
2023-03-13T11:57:43.960Z,2
2023-03-13T11:59:00.188Z,2.2
2023-03-13T12:00:16.434Z,1.8
2023-03-13T12:01:32.670Z,2.3
2023-03-13T12:02:48.905Z,7
2023-03-13T12:04:04.169Z,3.3
2023-03-13T12:05:20.415Z,3.3
2023-03-13T12:06:36.649Z,2.7
2023-03-13T12:07:52.000Z,2.5
2023-03-13T12:09:09.124Z,2
2023-03-13T12:10:25.364Z,1.8
2023-03-13T12:11:41.605Z,3
2023-03-13T12:12:57.848Z,2.2
2023-03-13T12:14:14.092Z,1.8
2023-03-13T12:15:30.314Z,2.8
2023-03-13T12:16:46.571Z,1.8
2023-03-13T12:18:02.808Z,2.4
2023-03-13T12:19:19.035Z,2.4
2023-03-13T12:20:34.300Z,2.6
2023-03-13T12:21:50.529Z,2
2023-03-13T12:23:06.767Z,2.9
2023-03-13T12:24:23.002Z,1.6
2023-03-13T12:25:39.253Z,1.5
2023-03-13T12:26:55.493Z,3.3
2023-03-13T12:28:11.740Z,1.5
2023-03-13T12:29:27.966Z,1.8
2023-03-13T12:30:44.201Z,1.8
2023-03-13T12:32:00.452Z,2.1
2023-03-13T12:33:16.682Z,2.8
2023-03-13T12:34:32.920Z,1.8
2023-03-13T12:35:49.167Z,3.1
2023-03-13T12:37:04.420Z,2.7
2023-03-13T12:38:20.662Z,1.8
2023-03-13T12:39:36.901Z,2.1
2023-03-13T12:40:53.125Z,1.3
2023-03-13T12:42:09.366Z,2
2023-03-13T12:43:25.603Z,1.8
2023-03-13T12:44:41.844Z,2.6
2023-03-13T12:45:58.088Z,2.4
2023-03-13T12:47:14.326Z,2.4
2023-03-13T12:48:30.568Z,2.5
2023-03-13T12:49:46.810Z,3.9
2023-03-13T12:51:03.048Z,2.3
2023-03-13T12:52:19.287Z,3.4
2023-03-13T12:53:34.529Z,2.2
2023-03-13T12:54:50.775Z,2.5
2023-03-13T12:56:07.003Z,3.7
2023-03-13T12:57:23.250Z,2.4
2023-03-13T12:58:39.485Z,5
2023-03-13T12:59:55.723Z,3.4
2023-03-13T13:01:11.980Z,2.5
2023-03-13T13:02:28.200Z,4.5
2023-03-13T13:03:44.437Z,5.1
2023-03-13T13:05:00.688Z,3.1
2023-03-13T13:06:16.918Z,2.8
2023-03-13T13:07:33.168Z,3.8
2023-03-13T13:10:05.647Z,7
2023-03-13T13:11:20.900Z,3.4
2023-03-13T13:12:37.124Z,3.8
2023-03-13T13:13:53.379Z,3.4
2023-03-13T13:15:09.619Z,4.3
2023-03-13T13:16:25.849Z,3.4
2023-03-13T13:17:42.082Z,2.6
2023-03-13T13:18:58.333Z,2.4
2023-03-13T13:20:14.559Z,5.2
2023-03-13T13:21:30.800Z,2.1
2023-03-13T13:22:47.031Z,3.3
2023-03-13T13:24:03.288Z,3.9
2023-03-13T13:25:19.509Z,4.1
2023-03-13T13:26:35.745Z,4.8
2023-03-13T13:27:51.020Z,2.1
2023-03-13T13:29:07.245Z,2.7
2023-03-13T13:30:23.488Z,2.8
2023-03-13T13:31:39.718Z,3.5
2023-03-13T13:32:55.969Z,3
2023-03-13T13:34:12.218Z,3.3
2023-03-13T13:35:28.454Z,3.1
2023-03-13T13:36:44.675Z,4
2023-03-13T13:38:00.914Z,5
2023-03-13T13:39:17.163Z,3.1
2023-03-13T13:40:33.404Z,3.4
2023-03-13T13:41:49.627Z,3.1
2023-03-13T13:43:05.870Z,2.6
2023-03-13T13:44:21.124Z,3.4
2023-03-13T13:45:37.360Z,1.9
2023-03-13T13:46:53.601Z,3
2023-03-13T13:48:09.837Z,4
2023-03-13T13:49:26.084Z,3
2023-03-13T13:50:42.325Z,3.4
2023-03-13T13:51:58.569Z,4
2023-03-13T13:53:14.800Z,3.6
2023-03-13T13:54:31.046Z,4.4
2023-03-13T13:55:47.284Z,3.2
2023-03-13T13:57:03.523Z,3.8
2023-03-13T13:58:19.749Z,4.1
2023-03-13T13:59:35.986Z,3.9
2023-03-13T14:00:51.250Z,2.4
2023-03-13T14:02:07.488Z,4.7
2023-03-13T14:03:23.722Z,2.6
2023-03-13T14:04:39.970Z,6.2
2023-03-13T14:05:56.213Z,2.9
2023-03-13T14:07:12.451Z,3.2
2023-03-13T14:08:28.686Z,2.6
2023-03-13T14:09:44.916Z,2.8
2023-03-13T14:11:01.163Z,3.7
2023-03-13T14:12:17.389Z,6.6
2023-03-13T14:13:33.635Z,3.1
2023-03-13T14:14:49.867Z,3.7
2023-03-13T14:16:06.112Z,2.4
2023-03-13T14:17:21.371Z,2.8
2023-03-13T14:18:37.611Z,2.5
2023-03-13T14:19:53.842Z,2
2023-03-13T14:21:10.085Z,4.1
2023-03-13T14:22:26.330Z,2.8
2023-03-13T14:23:42.574Z,2.2
2023-03-13T14:24:58.792Z,2.4
2023-03-13T14:26:15.045Z,3.6
2023-03-13T14:27:31.274Z,4
2023-03-13T14:28:47.520Z,3.4
2023-03-13T14:30:03.760Z,2.9
2023-03-13T14:31:19.987Z,3.1
2023-03-13T14:32:36.230Z,3
2023-03-13T14:33:51.502Z,2.2
2023-03-13T14:35:07.723Z,2.8
2023-03-13T14:36:23.958Z,3.4
2023-03-13T14:37:40.203Z,2.9
2023-03-13T14:38:56.434Z,2.9
2023-03-13T14:40:12.681Z,2.8
2023-03-13T14:41:28.923Z,2.9
2023-03-13T14:42:45.156Z,2.4
2023-03-13T14:44:01.398Z,2.6
2023-03-13T14:45:17.631Z,4.6
2023-03-13T14:46:33.885Z,4.2
2023-03-13T14:47:50.115Z,5.1
2023-03-13T14:49:06.353Z,2.5
2023-03-13T14:51:37.836Z,3.2
2023-03-13T14:52:54.074Z,3
2023-03-13T14:54:10.315Z,3.8
2023-03-13T14:55:26.563Z,6
2023-03-13T14:56:42.803Z,2.8
2023-03-13T14:57:59.028Z,2.4
2023-03-13T14:59:15.291Z,2.4
2023-03-13T15:00:31.507Z,3.5
2023-03-13T15:01:47.748Z,4.2
2023-03-13T15:03:03.993Z,4.2
2023-03-13T15:04:20.226Z,3.8
2023-03-13T15:05:36.473Z,2.4
2023-03-13T15:06:51.739Z,2.8
2023-03-13T15:08:07.971Z,4.6
2023-03-13T15:09:24.214Z,3.8
2023-03-13T15:10:40.435Z,3.9
2023-03-13T15:11:56.675Z,3.8
2023-03-13T15:13:12.922Z,3.3
2023-03-13T15:14:29.151Z,3.8
2023-03-13T15:15:45.394Z,4.2
2023-03-13T15:17:01.644Z,3.3
2023-03-13T15:18:17.865Z,2.4
2023-03-13T15:19:34.102Z,3.1
2023-03-13T15:20:50.343Z,2.8
2023-03-13T15:22:06.601Z,2.5
2023-03-13T15:23:21.834Z,2.8
2023-03-13T15:24:38.076Z,4.3
2023-03-13T15:25:54.321Z,3.9
2023-03-13T15:27:10.559Z,1.8
2023-03-13T15:28:26.814Z,3.1
2023-03-13T15:29:43.028Z,3.7
2023-03-13T15:30:59.282Z,5.1
2023-03-13T15:32:15.513Z,4.8
2023-03-13T15:33:31.749Z,3.6
2023-03-13T15:34:47.996Z,4.2
2023-03-13T15:36:04.226Z,3
2023-03-13T15:37:20.478Z,2.9
2023-03-13T15:38:36.711Z,3.9
2023-03-13T15:39:51.963Z,3.5
2023-03-13T15:41:08.211Z,3.2
2023-03-13T15:42:24.436Z,3.2
2023-03-13T15:43:40.679Z,4
2023-03-13T15:44:56.912Z,3.1
2023-03-13T15:46:13.165Z,6.1
2023-03-13T15:47:29.385Z,9.5
2023-03-13T15:48:45.636Z,5
2023-03-13T15:50:01.873Z,7.3
2023-03-13T15:51:18.108Z,11.2
2023-03-13T15:52:34.370Z,5.9
2023-03-13T15:53:50.597Z,12.2
2023-03-13T15:55:06.825Z,5.9
2023-03-13T15:56:22.089Z,7.9
2023-03-13T15:57:38.334Z,10.9
2023-03-13T15:58:54.564Z,6.9
2023-03-13T16:00:10.803Z,6.2
2023-03-13T16:01:27.033Z,6.6
2023-03-13T16:02:43.269Z,5.9
2023-03-13T16:03:59.505Z,7.7
2023-03-13T16:05:15.753Z,11.9
2023-03-13T16:06:31.987Z,6.7
2023-03-13T16:07:48.228Z,7.1
2023-03-13T16:09:04.474Z,10.8
2023-03-13T16:10:20.715Z,11.2
2023-03-13T16:11:36.946Z,5.7
2023-03-13T16:12:52.195Z,12
2023-03-13T16:14:08.447Z,12
2023-03-13T16:15:24.674Z,11.9
2023-03-13T16:16:40.924Z,8.8
2023-03-13T16:17:57.156Z,11.2
2023-03-13T16:19:12.423Z,10
2023-03-13T16:20:28.649Z,7.6
2023-03-13T16:21:44.899Z,9.3
2023-03-13T16:23:01.127Z,10.3
2023-03-13T16:24:17.374Z,18.7
2023-03-13T16:25:33.599Z,6.9
2023-03-13T16:26:49.855Z,9.9
2023-03-13T16:28:06.077Z,8.5
2023-03-13T16:29:22.321Z,7.5
2023-03-13T16:30:38.574Z,8.9
2023-03-13T16:31:54.793Z,7.2
2023-03-13T16:33:11.048Z,7.6
2023-03-13T16:34:27.282Z,3.8
2023-03-13T16:35:42.523Z,6.4
2023-03-13T16:36:58.762Z,4.7
2023-03-13T16:38:15.019Z,3.6
2023-03-13T16:39:31.255Z,4.5
2023-03-13T16:40:47.481Z,4.8
2023-03-13T16:42:03.725Z,4.8
2023-03-13T16:43:19.969Z,5.2
2023-03-13T16:44:36.204Z,5.4
2023-03-13T16:45:52.443Z,4.6
2023-03-13T16:47:08.672Z,5.9
2023-03-13T16:48:24.920Z,4.6
2023-03-13T16:49:41.160Z,5.4
2023-03-13T16:50:57.394Z,6
2023-03-13T16:52:12.650Z,5.1
2023-03-13T16:53:28.910Z,6.2
2023-03-13T16:54:45.121Z,5
2023-03-13T16:56:01.369Z,4.2
2023-03-13T16:57:17.605Z,6.3
2023-03-13T16:58:33.847Z,4.8
2023-03-13T16:59:50.076Z,4.9
2023-03-13T17:01:06.321Z,5
2023-03-13T17:02:22.557Z,4.4
2023-03-13T17:03:38.799Z,4.8
2023-03-13T17:04:55.028Z,3.9
2023-03-13T17:06:11.273Z,4.8
2023-03-13T17:07:27.514Z,6.6
2023-03-13T17:08:42.764Z,5.5
2023-03-13T17:09:59.004Z,5.6
2023-03-13T17:11:15.253Z,5
2023-03-13T17:12:31.477Z,7.4
2023-03-13T17:13:47.729Z,3.8
2023-03-13T17:15:03.963Z,5.4
2023-03-13T17:16:20.210Z,5.5
2023-03-13T17:17:36.430Z,5.3
2023-03-13T17:18:52.677Z,5.6
2023-03-13T17:20:08.927Z,5.2
2023-03-13T17:21:25.149Z,6.6